EIN853 LSGG-EICK
Flight info
| Callsign | EIN853 |
|---|---|
| Flight time | 1h 46m |
| Altitude | 38000 |
| Route | SIROD Z124 IBABA DCT TUTAX DCT OBURO DCT OKRIX DCT AMODO DCT COHPA UM729 RESMI UN491 LGL UN502 JSY DCT LIZAD DCT NAKID DCT EVCOR N160 LEDGO DCT ERTER ERTER1G |
| Aircraft | A20N/M-SDE2E3FGHIRWXY/LB1 |
Departure
| Time | 2026-05-05 09:27 |
|---|---|
| Airport | Geneva International Airport (LSGG) |
Arrival
| Time | 2026-05-05 11:14 |
|---|---|
| Airport | Cork International Airport (EICK) |
| Time | Latitude | Longitude | Altitude | Speed | Heading |
|---|---|---|---|---|---|
| 2026-05-05 09:02 | 46.23053 | 6.10613 | 1391 ft | 0 kts | 136° |
| 2026-05-05 09:16 | 46.23054 | 6.10613 | 1391 ft | 0 kts | 136° |
| 2026-05-05 09:16 | 46.23064 | 6.10598 | 1391 ft | 2 kts | 135° |
| 2026-05-05 09:17 | 46.23075 | 6.10583 | 1390 ft | 2 kts | 136° |
| 2026-05-05 09:17 | 46.23082 | 6.10574 | 1390 ft | 2 kts | 136° |
| 2026-05-05 09:17 | 46.23089 | 6.10555 | 1389 ft | 2 kts | 88° |
| 2026-05-05 09:17 | 46.23085 | 6.10537 | 1389 ft | 0 kts | 51° |
| 2026-05-05 09:18 | 46.23080 | 6.10531 | 1389 ft | 1 kts | 43° |
| 2026-05-05 09:18 | 46.23078 | 6.10528 | 1389 ft | 0 kts | 45° |
| 2026-05-05 09:19 | 46.23078 | 6.10529 | 1389 ft | 0 kts | 45° |
| 2026-05-05 09:20 | 46.23089 | 6.10543 | 1389 ft | 4 kts | 46° |
| 2026-05-05 09:20 | 46.23124 | 6.10595 | 1389 ft | 9 kts | 46° |
| 2026-05-05 09:20 | 46.23184 | 6.10684 | 1390 ft | 14 kts | 44° |
| 2026-05-05 09:20 | 46.23260 | 6.10776 | 1388 ft | 14 kts | 21° |
| 2026-05-05 09:21 | 46.23347 | 6.10792 | 1385 ft | 12 kts | 332° |
| 2026-05-05 09:21 | 46.23422 | 6.10704 | 1382 ft | 14 kts | 347° |
| 2026-05-05 09:21 | 46.23505 | 6.10788 | 1380 ft | 15 kts | 45° |
| 2026-05-05 09:21 | 46.23581 | 6.10898 | 1380 ft | 15 kts | 46° |
| 2026-05-05 09:22 | 46.23656 | 6.11009 | 1377 ft | 15 kts | 45° |
| 2026-05-05 09:22 | 46.23734 | 6.11122 | 1375 ft | 16 kts | 45° |
| 2026-05-05 09:22 | 46.23812 | 6.11237 | 1374 ft | 16 kts | 45° |
| 2026-05-05 09:22 | 46.23893 | 6.11355 | 1373 ft | 16 kts | 45° |
| 2026-05-05 09:23 | 46.23972 | 6.11471 | 1372 ft | 17 kts | 45° |
| 2026-05-05 09:23 | 46.24059 | 6.11600 | 1372 ft | 17 kts | 45° |
| 2026-05-05 09:23 | 46.24150 | 6.11734 | 1368 ft | 19 kts | 45° |
| 2026-05-05 09:23 | 46.24248 | 6.11877 | 1367 ft | 19 kts | 45° |
| 2026-05-05 09:24 | 46.24344 | 6.12018 | 1367 ft | 19 kts | 45° |
| 2026-05-05 09:24 | 46.24440 | 6.12159 | 1367 ft | 19 kts | 45° |
| 2026-05-05 09:24 | 46.24533 | 6.12296 | 1367 ft | 19 kts | 45° |
| 2026-05-05 09:24 | 46.24627 | 6.12434 | 1367 ft | 19 kts | 45° |
| 2026-05-05 09:25 | 46.24721 | 6.12573 | 1364 ft | 20 kts | 45° |
| 2026-05-05 09:25 | 46.24836 | 6.12686 | 1363 ft | 20 kts | 19° |
| 2026-05-05 09:25 | 46.24963 | 6.12705 | 1360 ft | 18 kts | 326° |
| 2026-05-05 09:25 | 46.24945 | 6.12564 | 1363 ft | 15 kts | 222° |
| 2026-05-05 09:26 | 46.24898 | 6.12497 | 1364 ft | 6 kts | 225° |
| 2026-05-05 09:26 | 46.24866 | 6.12451 | 1365 ft | 6 kts | 226° |
| 2026-05-05 09:26 | 46.24811 | 6.12369 | 1367 ft | 20 kts | 225° |
| 2026-05-05 09:26 | 46.24525 | 6.11953 | 1368 ft | 97 kts | 226° |
| 2026-05-05 09:27 | 46.23887 | 6.11013 | 1378 ft | 162 kts | 225° |
| 2026-05-05 09:27 | 46.23032 | 6.09757 | 1708 ft | 185 kts | 225° |
| 2026-05-05 09:27 | 46.22095 | 6.08375 | 2172 ft | 203 kts | 226° |
| 2026-05-05 09:27 | 46.21058 | 6.06822 | 2655 ft | 228 kts | 226° |
| 2026-05-05 09:28 | 46.19898 | 6.05130 | 3358 ft | 244 kts | 225° |
| 2026-05-05 09:28 | 46.18691 | 6.03390 | 4166 ft | 254 kts | 225° |
| 2026-05-05 09:28 | 46.17440 | 6.01584 | 5141 ft | 258 kts | 225° |
| 2026-05-05 09:28 | 46.16177 | 5.99753 | 6110 ft | 261 kts | 225° |
| 2026-05-05 09:29 | 46.14916 | 5.97886 | 7059 ft | 265 kts | 226° |
| 2026-05-05 09:29 | 46.13769 | 5.95832 | 7964 ft | 269 kts | 245° |
| 2026-05-05 09:29 | 46.13457 | 5.93208 | 8856 ft | 272 kts | 278° |
| 2026-05-05 09:29 | 46.14095 | 5.90673 | 9747 ft | 275 kts | 304° |
| 2026-05-05 09:30 | 46.15432 | 5.88769 | 10537 ft | 281 kts | 329° |
| 2026-05-05 09:30 | 46.17335 | 5.87782 | 11070 ft | 297 kts | 349° |
| 2026-05-05 09:30 | 46.19476 | 5.87179 | 11655 ft | 312 kts | 348° |
| 2026-05-05 09:30 | 46.21632 | 5.86540 | 12460 ft | 317 kts | 348° |
| 2026-05-05 09:31 | 46.23808 | 5.85867 | 13311 ft | 320 kts | 348° |
| 2026-05-05 09:31 | 46.26017 | 5.85165 | 14135 ft | 324 kts | 347° |
| 2026-05-05 09:31 | 46.28216 | 5.84457 | 14920 ft | 328 kts | 347° |
| 2026-05-05 09:31 | 46.30456 | 5.83730 | 15693 ft | 332 kts | 347° |
| 2026-05-05 09:32 | 46.32703 | 5.82998 | 16444 ft | 336 kts | 347° |
| 2026-05-05 09:32 | 46.34974 | 5.82257 | 17177 ft | 339 kts | 347° |
| 2026-05-05 09:32 | 46.37319 | 5.81492 | 17909 ft | 343 kts | 347° |
| 2026-05-05 09:32 | 46.39622 | 5.80663 | 18602 ft | 347 kts | 343° |
| 2026-05-05 09:33 | 46.41897 | 5.79462 | 19285 ft | 351 kts | 336° |
| 2026-05-05 09:33 | 46.44085 | 5.77888 | 19955 ft | 354 kts | 332° |
| 2026-05-05 09:33 | 46.46265 | 5.76140 | 20613 ft | 358 kts | 330° |
| 2026-05-05 09:33 | 46.48420 | 5.74381 | 21244 ft | 361 kts | 330° |
| 2026-05-05 09:34 | 46.50607 | 5.72598 | 21864 ft | 365 kts | 331° |
| 2026-05-05 09:34 | 46.52823 | 5.70801 | 22470 ft | 368 kts | 331° |
| 2026-05-05 09:34 | 46.55068 | 5.68983 | 23062 ft | 372 kts | 331° |
| 2026-05-05 09:34 | 46.57335 | 5.67146 | 23640 ft | 375 kts | 331° |
| 2026-05-05 09:35 | 46.59607 | 5.65299 | 24197 ft | 378 kts | 331° |
| 2026-05-05 09:35 | 46.64228 | 5.61534 | 25269 ft | 385 kts | 331° |
| 2026-05-05 09:35 | 46.66551 | 5.59642 | 25779 ft | 388 kts | 331° |
| 2026-05-05 09:36 | 46.68929 | 5.57694 | 26283 ft | 391 kts | 330° |
| 2026-05-05 09:36 | 46.71275 | 5.55759 | 26762 ft | 394 kts | 330° |
| 2026-05-05 09:36 | 46.73668 | 5.53781 | 27234 ft | 397 kts | 330° |
| 2026-05-05 09:36 | 46.76088 | 5.51779 | 27695 ft | 400 kts | 330° |
| 2026-05-05 09:37 | 46.78483 | 5.49796 | 28138 ft | 402 kts | 330° |
| 2026-05-05 09:37 | 46.80925 | 5.47772 | 28575 ft | 405 kts | 330° |
| 2026-05-05 09:37 | 46.83393 | 5.45718 | 29002 ft | 408 kts | 329° |
| 2026-05-05 09:37 | 46.85680 | 5.43280 | 29392 ft | 411 kts | 318° |
| 2026-05-05 09:38 | 46.87608 | 5.40201 | 29793 ft | 413 kts | 307° |
| 2026-05-05 09:38 | 46.89097 | 5.36625 | 30178 ft | 416 kts | 296° |
| 2026-05-05 09:38 | 46.90257 | 5.32751 | 30569 ft | 418 kts | 293° |
| 2026-05-05 09:38 | 46.91513 | 5.28889 | 30933 ft | 421 kts | 298° |
| 2026-05-05 09:39 | 46.93001 | 5.25226 | 31284 ft | 423 kts | 304° |
| 2026-05-05 09:39 | 46.94750 | 5.21803 | 31625 ft | 425 kts | 310° |
| 2026-05-05 09:39 | 46.96784 | 5.18611 | 31958 ft | 428 kts | 316° |
| 2026-05-05 09:39 | 46.98952 | 5.15654 | 32302 ft | 429 kts | 317° |
| 2026-05-05 09:40 | 47.01160 | 5.12730 | 32727 ft | 428 kts | 318° |
| 2026-05-05 09:40 | 47.03358 | 5.09833 | 33163 ft | 427 kts | 318° |
| 2026-05-05 09:40 | 47.05571 | 5.06910 | 33575 ft | 426 kts | 318° |
| 2026-05-05 09:40 | 47.07761 | 5.04010 | 33960 ft | 425 kts | 318° |
| 2026-05-05 09:41 | 47.09924 | 5.01140 | 34325 ft | 424 kts | 317° |
| 2026-05-05 09:41 | 47.12128 | 4.98208 | 34687 ft | 424 kts | 317° |
| 2026-05-05 09:41 | 47.14280 | 4.95341 | 35030 ft | 423 kts | 317° |
| 2026-05-05 09:41 | 47.16449 | 4.92447 | 35364 ft | 422 kts | 317° |
| 2026-05-05 09:42 | 47.18616 | 4.89552 | 35687 ft | 422 kts | 317° |
| 2026-05-05 09:42 | 47.20786 | 4.86650 | 35996 ft | 421 kts | 317° |
| 2026-05-05 09:42 | 47.22936 | 4.83770 | 36294 ft | 421 kts | 317° |
| 2026-05-05 09:42 | 47.25087 | 4.80886 | 36522 ft | 421 kts | 317° |
| 2026-05-05 09:43 | 47.27243 | 4.77992 | 36714 ft | 423 kts | 317° |
| 2026-05-05 09:43 | 47.29420 | 4.75065 | 36895 ft | 424 kts | 317° |
| 2026-05-05 09:43 | 47.31604 | 4.72127 | 37085 ft | 426 kts | 317° |
| 2026-05-05 09:43 | 47.33772 | 4.69206 | 37273 ft | 427 kts | 317° |
| 2026-05-05 09:44 | 47.35974 | 4.66236 | 37456 ft | 428 kts | 317° |
| 2026-05-05 09:44 | 47.38159 | 4.63285 | 37630 ft | 429 kts | 317° |
| 2026-05-05 09:44 | 47.40351 | 4.60321 | 37800 ft | 430 kts | 317° |
| 2026-05-05 09:44 | 47.42540 | 4.57357 | 37959 ft | 431 kts | 317° |
| 2026-05-05 09:45 | 47.46956 | 4.51370 | 37992 ft | 432 kts | 317° |
| 2026-05-05 09:45 | 47.51360 | 4.45383 | 37995 ft | 432 kts | 317° |
| 2026-05-05 09:46 | 47.55793 | 4.39337 | 37995 ft | 432 kts | 317° |
| 2026-05-05 09:46 | 47.60189 | 4.33329 | 37995 ft | 432 kts | 317° |
| 2026-05-05 09:47 | 47.64414 | 4.27034 | 37995 ft | 432 kts | 311° |
| 2026-05-05 09:47 | 47.68119 | 4.20050 | 37995 ft | 432 kts | 304° |
| 2026-05-05 09:48 | 47.71493 | 4.12661 | 37996 ft | 432 kts | 303° |
| 2026-05-05 09:48 | 47.74841 | 4.05250 | 37996 ft | 432 kts | 304° |
| 2026-05-05 09:49 | 47.78179 | 3.97864 | 37995 ft | 432 kts | 304° |
| 2026-05-05 09:49 | 47.81516 | 3.90471 | 37995 ft | 432 kts | 304° |
| 2026-05-05 09:50 | 47.84868 | 3.83029 | 37995 ft | 432 kts | 304° |
| 2026-05-05 09:50 | 47.88195 | 3.75619 | 37995 ft | 432 kts | 304° |
| 2026-05-05 09:51 | 47.91530 | 3.68167 | 37995 ft | 432 kts | 304° |
| 2026-05-05 09:51 | 47.94968 | 3.60853 | 37995 ft | 432 kts | 308° |
| 2026-05-05 09:52 | 47.98917 | 3.54118 | 37995 ft | 432 kts | 315° |
| 2026-05-05 09:52 | 48.03352 | 3.48055 | 37996 ft | 432 kts | 320° |
| 2026-05-05 09:53 | 48.07903 | 3.42233 | 37996 ft | 432 kts | 320° |
| 2026-05-05 09:53 | 48.12456 | 3.36389 | 37995 ft | 432 kts | 320° |
| 2026-05-05 09:54 | 48.17032 | 3.30486 | 37996 ft | 432 kts | 319° |
| 2026-05-05 09:54 | 48.21566 | 3.24618 | 37996 ft | 432 kts | 319° |
| 2026-05-05 09:55 | 48.26129 | 3.18696 | 37996 ft | 432 kts | 319° |
| 2026-05-05 09:55 | 48.30669 | 3.12789 | 37996 ft | 432 kts | 319° |
| 2026-05-05 09:56 | 48.35169 | 3.06918 | 37996 ft | 432 kts | 318° |
| 2026-05-05 09:56 | 48.39292 | 3.00330 | 37995 ft | 432 kts | 307° |
| 2026-05-05 09:57 | 48.42452 | 2.92691 | 37996 ft | 432 kts | 296° |
| 2026-05-05 09:57 | 48.44611 | 2.84228 | 37996 ft | 432 kts | 286° |
| 2026-05-05 09:58 | 48.46270 | 2.75506 | 37996 ft | 432 kts | 286° |
| 2026-05-05 09:58 | 48.47917 | 2.66822 | 37996 ft | 432 kts | 286° |
| 2026-05-05 09:59 | 48.49567 | 2.58117 | 37995 ft | 432 kts | 286° |
| 2026-05-05 09:59 | 48.51203 | 2.49459 | 37995 ft | 432 kts | 286° |
| 2026-05-05 10:00 | 48.52846 | 2.40722 | 37995 ft | 432 kts | 286° |
| 2026-05-05 10:00 | 48.54472 | 2.32042 | 37995 ft | 432 kts | 285° |
| 2026-05-05 10:01 | 48.56098 | 2.23316 | 37995 ft | 432 kts | 285° |
| 2026-05-05 10:01 | 48.57531 | 2.14537 | 37996 ft | 432 kts | 282° |
| 2026-05-05 10:02 | 48.58769 | 2.05726 | 37995 ft | 432 kts | 282° |
| 2026-05-05 10:02 | 48.60004 | 1.96861 | 37995 ft | 432 kts | 282° |
| 2026-05-05 10:03 | 48.61234 | 1.88012 | 37995 ft | 432 kts | 282° |
| 2026-05-05 10:03 | 48.62462 | 1.79138 | 37995 ft | 432 kts | 282° |
| 2026-05-05 10:04 | 48.63678 | 1.70293 | 37995 ft | 432 kts | 282° |
| 2026-05-05 10:04 | 48.64891 | 1.61400 | 37995 ft | 432 kts | 282° |
| 2026-05-05 10:05 | 48.66089 | 1.52542 | 37995 ft | 432 kts | 282° |
| 2026-05-05 10:05 | 48.67287 | 1.43610 | 37995 ft | 432 kts | 282° |
| 2026-05-05 10:06 | 48.68470 | 1.34740 | 37995 ft | 432 kts | 281° |
| 2026-05-05 10:06 | 48.69653 | 1.25825 | 37995 ft | 432 kts | 281° |
| 2026-05-05 10:07 | 48.70824 | 1.16951 | 37995 ft | 432 kts | 281° |
| 2026-05-05 10:07 | 48.71992 | 1.08043 | 37995 ft | 432 kts | 281° |
| 2026-05-05 10:08 | 48.73146 | 0.99178 | 37995 ft | 432 kts | 281° |
| 2026-05-05 10:08 | 48.74300 | 0.90252 | 37995 ft | 432 kts | 281° |
| 2026-05-05 10:09 | 48.75452 | 0.81328 | 37995 ft | 432 kts | 281° |
| 2026-05-05 10:09 | 48.76600 | 0.72400 | 37995 ft | 432 kts | 281° |
| 2026-05-05 10:10 | 48.77736 | 0.63500 | 37995 ft | 432 kts | 281° |
| 2026-05-05 10:10 | 48.78878 | 0.54571 | 37995 ft | 432 kts | 282° |
| 2026-05-05 10:11 | 48.80363 | 0.45785 | 37995 ft | 432 kts | 285° |
| 2026-05-05 10:11 | 48.81962 | 0.36998 | 37995 ft | 432 kts | 286° |
| 2026-05-05 10:12 | 48.83545 | 0.28247 | 37995 ft | 432 kts | 285° |
| 2026-05-05 10:12 | 48.85119 | 0.19478 | 37995 ft | 432 kts | 285° |
| 2026-05-05 10:13 | 48.86683 | 0.10715 | 37995 ft | 432 kts | 285° |
| 2026-05-05 10:13 | 48.88251 | 0.01882 | 37995 ft | 432 kts | 285° |
| 2026-05-05 10:14 | 48.89797 | -0.06869 | 37995 ft | 432 kts | 285° |
| 2026-05-05 10:14 | 48.91346 | -0.15682 | 37995 ft | 432 kts | 285° |
| 2026-05-05 10:15 | 48.92887 | -0.24495 | 37995 ft | 432 kts | 285° |
| 2026-05-05 10:15 | 48.94392 | -0.33316 | 37995 ft | 432 kts | 284° |
| 2026-05-05 10:16 | 48.95868 | -0.42084 | 37995 ft | 432 kts | 284° |
| 2026-05-05 10:16 | 48.97357 | -0.50964 | 37995 ft | 432 kts | 284° |
| 2026-05-05 10:17 | 48.98829 | -0.59778 | 37995 ft | 432 kts | 284° |
| 2026-05-05 10:17 | 49.00301 | -0.68635 | 37995 ft | 432 kts | 284° |
| 2026-05-05 10:18 | 49.01760 | -0.77463 | 37995 ft | 432 kts | 284° |
| 2026-05-05 10:18 | 49.03216 | -0.86319 | 37995 ft | 432 kts | 284° |
| 2026-05-05 10:19 | 49.04663 | -0.95160 | 37995 ft | 432 kts | 284° |
| 2026-05-05 10:19 | 49.06102 | -1.04003 | 37995 ft | 432 kts | 284° |
| 2026-05-05 10:20 | 49.07536 | -1.12872 | 37995 ft | 432 kts | 284° |
| 2026-05-05 10:20 | 49.08971 | -1.21757 | 37995 ft | 432 kts | 284° |
| 2026-05-05 10:21 | 49.10409 | -1.30615 | 37995 ft | 432 kts | 284° |
| 2026-05-05 10:21 | 49.11839 | -1.39473 | 37995 ft | 432 kts | 284° |
| 2026-05-05 10:22 | 49.13262 | -1.48336 | 37995 ft | 432 kts | 284° |
| 2026-05-05 10:22 | 49.14678 | -1.57210 | 37995 ft | 432 kts | 284° |
| 2026-05-05 10:23 | 49.16093 | -1.66124 | 37995 ft | 432 kts | 283° |
| 2026-05-05 10:23 | 49.17501 | -1.75042 | 37995 ft | 432 kts | 283° |
| 2026-05-05 10:24 | 49.18896 | -1.83929 | 37995 ft | 432 kts | 283° |
| 2026-05-05 10:24 | 49.20285 | -1.92824 | 37995 ft | 432 kts | 283° |
| 2026-05-05 10:25 | 49.21676 | -2.01793 | 37995 ft | 432 kts | 283° |
| 2026-05-05 10:25 | 49.23126 | -2.10681 | 37995 ft | 432 kts | 285° |
| 2026-05-05 10:26 | 49.24661 | -2.19515 | 37995 ft | 432 kts | 285° |
| 2026-05-05 10:26 | 49.26193 | -2.28421 | 37995 ft | 432 kts | 285° |
| 2026-05-05 10:27 | 49.27699 | -2.37251 | 37995 ft | 432 kts | 285° |
| 2026-05-05 10:27 | 49.29203 | -2.46138 | 37995 ft | 432 kts | 285° |
| 2026-05-05 10:28 | 49.30703 | -2.55047 | 37995 ft | 432 kts | 285° |
| 2026-05-05 10:28 | 49.32192 | -2.63940 | 37995 ft | 432 kts | 285° |
| 2026-05-05 10:29 | 49.33678 | -2.72861 | 37995 ft | 433 kts | 284° |
| 2026-05-05 10:29 | 49.35155 | -2.81778 | 37995 ft | 433 kts | 284° |
| 2026-05-05 10:30 | 49.36621 | -2.90673 | 37995 ft | 433 kts | 284° |
| 2026-05-05 10:30 | 49.38087 | -2.99616 | 37995 ft | 433 kts | 284° |
| 2026-05-05 10:31 | 49.39548 | -3.08575 | 37995 ft | 433 kts | 284° |
| 2026-05-05 10:31 | 49.41011 | -3.17596 | 37995 ft | 433 kts | 284° |
| 2026-05-05 10:32 | 49.42403 | -3.26807 | 37995 ft | 432 kts | 280° |
| 2026-05-05 10:32 | 49.43611 | -3.36276 | 37995 ft | 432 kts | 283° |
| 2026-05-05 10:33 | 49.45176 | -3.45598 | 37995 ft | 432 kts | 285° |
| 2026-05-05 10:33 | 49.46720 | -3.54451 | 37995 ft | 432 kts | 285° |
| 2026-05-05 10:34 | 49.48228 | -3.63393 | 37995 ft | 432 kts | 284° |
| 2026-05-05 10:34 | 49.49678 | -3.72316 | 37995 ft | 432 kts | 283° |
| 2026-05-05 10:35 | 49.51103 | -3.81297 | 37995 ft | 432 kts | 283° |
| 2026-05-05 10:35 | 49.52509 | -3.90292 | 37995 ft | 432 kts | 283° |
| 2026-05-05 10:36 | 49.53895 | -3.99249 | 37995 ft | 432 kts | 283° |
| 2026-05-05 10:36 | 49.55277 | -4.08248 | 37995 ft | 432 kts | 283° |
| 2026-05-05 10:37 | 49.56647 | -4.17230 | 37995 ft | 432 kts | 283° |
| 2026-05-05 10:37 | 49.58213 | -4.26230 | 37995 ft | 432 kts | 288° |
| 2026-05-05 10:38 | 49.60423 | -4.34864 | 37995 ft | 432 kts | 295° |
| 2026-05-05 10:38 | 49.63372 | -4.43234 | 37995 ft | 432 kts | 302° |
| 2026-05-05 10:39 | 49.66672 | -4.50981 | 37995 ft | 432 kts | 304° |
| 2026-05-05 10:39 | 49.70007 | -4.58740 | 37995 ft | 432 kts | 304° |
| 2026-05-05 10:40 | 49.73548 | -4.66268 | 37996 ft | 432 kts | 308° |
| 2026-05-05 10:40 | 49.77354 | -4.73691 | 37995 ft | 432 kts | 308° |
| 2026-05-05 10:41 | 49.81123 | -4.81042 | 37995 ft | 432 kts | 308° |
| 2026-05-05 10:41 | 49.84869 | -4.88380 | 37995 ft | 432 kts | 308° |
| 2026-05-05 10:42 | 49.90434 | -4.99330 | 37995 ft | 432 kts | 308° |
| 2026-05-05 10:43 | 49.94133 | -5.06634 | 37995 ft | 432 kts | 308° |
| 2026-05-05 10:43 | 49.97840 | -5.13974 | 37995 ft | 432 kts | 308° |
| 2026-05-05 10:44 | 50.01519 | -5.21278 | 37995 ft | 432 kts | 308° |
| 2026-05-05 10:44 | 50.05226 | -5.28659 | 37995 ft | 432 kts | 308° |
| 2026-05-05 10:45 | 50.08913 | -5.36021 | 37995 ft | 432 kts | 308° |
| 2026-05-05 10:45 | 50.12602 | -5.43410 | 37995 ft | 432 kts | 308° |
| 2026-05-05 10:46 | 50.16307 | -5.50852 | 37995 ft | 432 kts | 308° |
| 2026-05-05 10:46 | 50.19989 | -5.58267 | 37995 ft | 432 kts | 308° |
| 2026-05-05 10:47 | 50.23651 | -5.65665 | 37995 ft | 432 kts | 307° |
| 2026-05-05 10:47 | 50.27369 | -5.73196 | 37995 ft | 432 kts | 307° |
| 2026-05-05 10:48 | 50.31091 | -5.80758 | 37995 ft | 432 kts | 307° |
| 2026-05-05 10:48 | 50.34806 | -5.88327 | 37995 ft | 432 kts | 307° |
| 2026-05-05 10:49 | 50.38513 | -5.95901 | 37995 ft | 432 kts | 307° |
| 2026-05-05 10:49 | 50.42209 | -6.03476 | 37941 ft | 433 kts | 307° |
| 2026-05-05 10:49 | 50.44097 | -6.07354 | 37312 ft | 437 kts | 307° |
| 2026-05-05 10:50 | 50.45988 | -6.11241 | 36646 ft | 438 kts | 307° |
| 2026-05-05 10:50 | 50.47892 | -6.15165 | 35978 ft | 439 kts | 307° |
| 2026-05-05 10:50 | 50.49795 | -6.19090 | 35328 ft | 438 kts | 307° |
| 2026-05-05 10:50 | 50.51683 | -6.22990 | 34689 ft | 438 kts | 307° |
| 2026-05-05 10:51 | 50.53564 | -6.26881 | 34049 ft | 438 kts | 307° |
| 2026-05-05 10:51 | 50.55459 | -6.30808 | 33394 ft | 437 kts | 307° |
| 2026-05-05 10:51 | 50.57367 | -6.34767 | 32704 ft | 438 kts | 307° |
| 2026-05-05 10:51 | 50.59297 | -6.38780 | 31982 ft | 439 kts | 307° |
| 2026-05-05 10:52 | 50.61214 | -6.42771 | 31437 ft | 435 kts | 307° |
| 2026-05-05 10:52 | 50.63114 | -6.46734 | 30951 ft | 430 kts | 307° |
| 2026-05-05 10:52 | 50.64983 | -6.50635 | 30462 ft | 426 kts | 307° |
| 2026-05-05 10:52 | 50.66818 | -6.54474 | 29973 ft | 421 kts | 307° |
| 2026-05-05 10:53 | 50.68586 | -6.58176 | 29499 ft | 418 kts | 307° |
| 2026-05-05 10:53 | 50.70371 | -6.61920 | 29017 ft | 414 kts | 307° |
| 2026-05-05 10:53 | 50.72154 | -6.65665 | 28533 ft | 411 kts | 307° |
| 2026-05-05 10:53 | 50.73905 | -6.69347 | 28056 ft | 407 kts | 307° |
| 2026-05-05 10:54 | 50.75646 | -6.73014 | 27580 ft | 404 kts | 307° |
| 2026-05-05 10:54 | 50.77379 | -6.76669 | 27101 ft | 400 kts | 307° |
| 2026-05-05 10:54 | 50.79121 | -6.80347 | 26618 ft | 397 kts | 307° |
| 2026-05-05 10:54 | 50.80815 | -6.83931 | 26145 ft | 394 kts | 307° |
| 2026-05-05 10:55 | 50.82514 | -6.87528 | 25668 ft | 391 kts | 307° |
| 2026-05-05 10:55 | 50.84186 | -6.91075 | 25195 ft | 388 kts | 307° |
| 2026-05-05 10:55 | 50.85855 | -6.94619 | 24721 ft | 385 kts | 307° |
| 2026-05-05 10:55 | 50.87548 | -6.98222 | 24236 ft | 382 kts | 307° |
| 2026-05-05 10:56 | 50.89216 | -7.01775 | 23758 ft | 380 kts | 307° |
| 2026-05-05 10:56 | 50.90865 | -7.05292 | 23282 ft | 377 kts | 307° |
| 2026-05-05 10:56 | 50.92559 | -7.08858 | 22794 ft | 375 kts | 308° |
| 2026-05-05 10:56 | 50.94401 | -7.12261 | 22302 ft | 372 kts | 313° |
| 2026-05-05 10:57 | 50.96399 | -7.15426 | 21811 ft | 370 kts | 316° |
| 2026-05-05 10:57 | 50.98439 | -7.18468 | 21323 ft | 367 kts | 317° |
| 2026-05-05 10:57 | 51.00456 | -7.21454 | 20841 ft | 365 kts | 317° |
| 2026-05-05 10:57 | 51.02455 | -7.24420 | 20360 ft | 362 kts | 317° |
| 2026-05-05 10:58 | 51.04361 | -7.27258 | 19900 ft | 360 kts | 317° |
| 2026-05-05 10:58 | 51.06229 | -7.30046 | 19447 ft | 357 kts | 317° |
| 2026-05-05 10:58 | 51.08057 | -7.32780 | 19002 ft | 355 kts | 317° |
| 2026-05-05 10:58 | 51.09893 | -7.35529 | 18554 ft | 352 kts | 317° |
| 2026-05-05 10:59 | 51.11684 | -7.38217 | 18117 ft | 350 kts | 317° |
| 2026-05-05 10:59 | 51.13486 | -7.40923 | 17674 ft | 347 kts | 317° |
| 2026-05-05 10:59 | 51.15244 | -7.43567 | 17242 ft | 345 kts | 317° |
| 2026-05-05 10:59 | 51.17007 | -7.46220 | 16808 ft | 342 kts | 317° |
| 2026-05-05 11:00 | 51.18784 | -7.48898 | 16369 ft | 340 kts | 317° |
| 2026-05-05 11:00 | 51.20535 | -7.51540 | 15936 ft | 338 kts | 317° |
| 2026-05-05 11:00 | 51.22277 | -7.54172 | 15502 ft | 335 kts | 317° |
| 2026-05-05 11:00 | 51.24016 | -7.56800 | 15069 ft | 333 kts | 317° |
| 2026-05-05 11:01 | 51.25814 | -7.59520 | 14622 ft | 331 kts | 317° |
| 2026-05-05 11:01 | 51.27588 | -7.62207 | 14178 ft | 328 kts | 317° |
| 2026-05-05 11:01 | 51.29292 | -7.64790 | 13751 ft | 326 kts | 317° |
| 2026-05-05 11:01 | 51.30976 | -7.67349 | 13328 ft | 324 kts | 316° |
| 2026-05-05 11:02 | 51.32657 | -7.69905 | 12904 ft | 322 kts | 316° |
| 2026-05-05 11:02 | 51.34318 | -7.72432 | 12484 ft | 320 kts | 316° |
| 2026-05-05 11:02 | 51.35968 | -7.74946 | 12067 ft | 317 kts | 316° |
| 2026-05-05 11:02 | 51.37624 | -7.77471 | 11647 ft | 315 kts | 316° |
| 2026-05-05 11:03 | 51.39238 | -7.79935 | 11237 ft | 313 kts | 316° |
| 2026-05-05 11:03 | 51.40852 | -7.82403 | 10825 ft | 311 kts | 316° |
| 2026-05-05 11:03 | 51.42479 | -7.84893 | 10410 ft | 309 kts | 316° |
| 2026-05-05 11:03 | 51.44106 | -7.87384 | 10180 ft | 299 kts | 316° |
| 2026-05-05 11:04 | 51.45654 | -7.89758 | 10071 ft | 286 kts | 316° |
| 2026-05-05 11:04 | 51.47120 | -7.92007 | 9904 ft | 276 kts | 316° |
| 2026-05-05 11:04 | 51.48565 | -7.94227 | 9532 ft | 275 kts | 316° |
| 2026-05-05 11:04 | 51.50021 | -7.96466 | 9170 ft | 273 kts | 316° |
| 2026-05-05 11:05 | 51.51462 | -7.98684 | 8820 ft | 270 kts | 316° |
| 2026-05-05 11:05 | 51.52866 | -8.00847 | 8482 ft | 268 kts | 316° |
| 2026-05-05 11:05 | 51.54268 | -8.03008 | 8147 ft | 266 kts | 316° |
| 2026-05-05 11:05 | 51.55629 | -8.05177 | 7996 ft | 255 kts | 310° |
| 2026-05-05 11:06 | 51.56654 | -8.07606 | 7835 ft | 246 kts | 296° |
| 2026-05-05 11:06 | 51.57396 | -8.10246 | 7320 ft | 253 kts | 292° |
| 2026-05-05 11:06 | 51.58099 | -8.12998 | 7000 ft | 250 kts | 292° |
| 2026-05-05 11:06 | 51.58778 | -8.15663 | 6716 ft | 246 kts | 292° |
| 2026-05-05 11:07 | 51.59452 | -8.18283 | 6447 ft | 242 kts | 292° |
| 2026-05-05 11:07 | 51.60113 | -8.20828 | 6178 ft | 239 kts | 293° |
| 2026-05-05 11:07 | 51.60759 | -8.23302 | 5928 ft | 235 kts | 293° |
| 2026-05-05 11:07 | 51.61401 | -8.25763 | 5681 ft | 231 kts | 293° |
| 2026-05-05 11:08 | 51.62027 | -8.28157 | 5442 ft | 227 kts | 293° |
| 2026-05-05 11:08 | 51.62650 | -8.30542 | 5204 ft | 223 kts | 293° |
| 2026-05-05 11:08 | 51.63256 | -8.32863 | 4980 ft | 220 kts | 293° |
| 2026-05-05 11:08 | 51.63867 | -8.35206 | 4744 ft | 216 kts | 293° |
| 2026-05-05 11:09 | 51.64691 | -8.37307 | 4475 ft | 212 kts | 321° |
| 2026-05-05 11:09 | 51.65983 | -8.38521 | 4267 ft | 207 kts | 338° |
| 2026-05-05 11:09 | 51.67375 | -8.39319 | 4068 ft | 202 kts | 342° |
| 2026-05-05 11:09 | 51.68752 | -8.40045 | 3962 ft | 189 kts | 342° |
| 2026-05-05 11:10 | 51.69992 | -8.40736 | 3746 ft | 183 kts | 341° |
| 2026-05-05 11:10 | 51.71213 | -8.41449 | 3497 ft | 178 kts | 340° |
| 2026-05-05 11:10 | 51.72371 | -8.42139 | 3186 ft | 173 kts | 340° |
| 2026-05-05 11:10 | 51.73524 | -8.42827 | 2807 ft | 170 kts | 340° |
| 2026-05-05 11:11 | 51.74632 | -8.43487 | 2465 ft | 166 kts | 340° |
| 2026-05-05 11:11 | 51.75738 | -8.44143 | 2134 ft | 162 kts | 340° |
| 2026-05-05 11:11 | 51.76797 | -8.44771 | 1829 ft | 157 kts | 340° |
| 2026-05-05 11:11 | 51.77813 | -8.45374 | 1601 ft | 146 kts | 340° |
| 2026-05-05 11:12 | 51.78773 | -8.45942 | 1415 ft | 144 kts | 340° |
| 2026-05-05 11:12 | 51.79671 | -8.46474 | 1229 ft | 133 kts | 340° |
| 2026-05-05 11:12 | 51.80521 | -8.46977 | 1057 ft | 129 kts | 340° |
| 2026-05-05 11:12 | 51.81366 | -8.47478 | 889 ft | 129 kts | 340° |
| 2026-05-05 11:13 | 51.82206 | -8.47974 | 717 ft | 128 kts | 340° |
| 2026-05-05 11:13 | 51.83050 | -8.48474 | 543 ft | 128 kts | 340° |
| 2026-05-05 11:13 | 51.83852 | -8.48947 | 472 ft | 97 kts | 340° |
| 2026-05-05 11:13 | 51.84302 | -8.49215 | 486 ft | 58 kts | 340° |
| 2026-05-05 11:14 | 51.84654 | -8.49428 | 493 ft | 50 kts | 341° |
| 2026-05-05 11:14 | 51.84931 | -8.49580 | 491 ft | 17 kts | 345° |
| 2026-05-05 11:14 | 51.85051 | -8.49549 | 492 ft | 16 kts | 26° |
| 2026-05-05 11:14 | 51.85131 | -8.49477 | 495 ft | 11 kts | 46° |
| 2026-05-05 11:15 | 51.85148 | -8.49395 | 500 ft | 5 kts | 134° |
| 2026-05-05 11:15 | 51.85109 | -8.49371 | 501 ft | 6 kts | 160° |
| 2026-05-05 11:15 | 51.85067 | -8.49346 | 501 ft | 6 kts | 160° |
| 2026-05-05 11:15 | 51.85024 | -8.49321 | 502 ft | 5 kts | 160° |
| 2026-05-05 11:16 | 51.84989 | -8.49301 | 503 ft | 4 kts | 160° |
| 2026-05-05 11:16 | 51.84960 | -8.49285 | 503 ft | 4 kts | 165° |
| 2026-05-05 11:16 | 51.84934 | -8.49275 | 503 ft | 3 kts | 168° |
| 2026-05-05 11:16 | 51.84913 | -8.49266 | 503 ft | 2 kts | 162° |
| 2026-05-05 11:17 | 51.84903 | -8.49260 | 504 ft | 1 kts | 160° |
| 2026-05-05 11:17 | 51.84896 | -8.49256 | 504 ft | 1 kts | 159° |
| 2026-05-05 11:17 | 51.84880 | -8.49245 | 504 ft | 3 kts | 150° |
| 2026-05-05 11:17 | 51.84867 | -8.49208 | 506 ft | 3 kts | 93° |
| 2026-05-05 11:18 | 51.84870 | -8.49179 | 507 ft | 1 kts | 72° |
| 2026-05-05 11:18 | 51.84873 | -8.49166 | 508 ft | 2 kts | 70° |
| 2026-05-05 11:18 | 51.84885 | -8.49112 | 510 ft | 4 kts | 71° |
| 2026-05-05 11:18 | 51.84889 | -8.49096 | 511 ft | 0 kts | 70° |
| 2026-05-05 11:19 | 51.84890 | -8.49089 | 511 ft | 0 kts | 70° |
| 2026-05-05 11:19 | 51.84890 | -8.49090 | 511 ft | 0 kts | 70° |